Time;durP1;ratioP1;P1;durP2;ratioP2;P2;SDS_P1;SDS_P2;PMS_P1;PMS_P2;Temp;Humidity;BMP_temperature;BMP_pressure;BME280_temperature;BME280_humidity;BME280_pressure;Samples;Min_cycle;Max_cycle;Signal;HPM_P1;HPM_P2
2021/08/05 00:01:48;;;;;;;5.05;2.60;;;;;;;21.79;61.51;100386.22;4924283;29;20039;-71
2021/08/05 00:04:14;;;;;;;3.88;2.28;;;;;;;21.79;61.24;100383.56;4937849;28;20501;-70
2021/08/05 00:06:39;;;;;;;5.63;2.70;;;;;;;21.78;61.43;100377.41;4951896;29;20043;-71
2021/08/05 00:09:05;;;;;;;4.95;2.58;;;;;;;21.78;61.29;100387.25;4952188;29;20470;-71
2021/08/05 00:11:31;;;;;;;4.78;2.47;;;;;;;21.78;60.93;100374.72;4934523;29;20055;-70
2021/08/05 00:13:57;;;;;;;6.60;2.63;;;;;;;21.79;60.94;100378.22;4952845;29;20043;-71
2021/08/05 00:16:23;;;;;;;3.42;2.17;;;;;;;21.78;61.11;100368.56;4952137;28;20138;-71
2021/08/05 00:18:49;;;;;;;3.15;2.28;;;;;;;21.78;60.90;100365.91;4953034;29;20047;-71
2021/08/05 00:21:18;;;;;;;4.22;2.50;;;;;;;21.78;60.98;100358.72;4952028;28;20038;-71
2021/08/05 00:23:43;;;;;;;4.72;2.53;;;;;;;21.78;61.29;100360.56;4950185;29;20049;-70
2021/08/05 00:26:09;;;;;;;4.15;2.20;;;;;;;21.79;61.19;100356.84;4952684;29;20545;-71
2021/08/05 00:28:35;;;;;;;3.88;2.25;;;;;;;21.79;60.83;100354.19;4951815;29;20070;-71
2021/08/05 00:31:00;;;;;;;4.78;2.38;;;;;;;21.79;61.17;100338.16;4953195;29;20054;-71
2021/08/05 00:33:25;;;;;;;4.38;2.47;;;;;;;21.79;60.89;100347.00;4949293;29;20505;-71
2021/08/05 00:35:51;;;;;;;3.90;2.72;;;;;;;21.79;60.91;100346.19;4952505;29;20118;-71
2021/08/05 00:38:17;;;;;;;4.68;2.15;;;;;;;21.79;61.28;100340.84;4935122;29;20393;-71
2021/08/05 00:40:42;;;;;;;4.45;2.40;;;;;;;21.79;61.20;100336.31;4934349;28;20043;-71
2021/08/05 00:43:08;;;;;;;3.80;2.25;;;;;;;21.79;61.11;100340.84;4943342;28;20043;-71
2021/08/05 00:45:34;;;;;;;4.00;2.33;;;;;;;21.78;60.88;100326.66;4946437;29;20630;-71
2021/08/05 00:47:59;;;;;;;4.78;2.17;;;;;;;21.79;61.11;100322.97;4952499;29;20032;-70
2021/08/05 00:50:25;;;;;;;4.15;2.15;;;;;;;21.79;61.01;100316.81;4951552;28;20493;-70
2021/08/05 00:52:50;;;;;;;3.92;1.90;;;;;;;21.79;61.04;100314.13;4951539;28;20489;-70
2021/08/05 00:55:16;;;;;;;3.13;2.10;;;;;;;21.80;60.88;100307.75;4951399;29;20043;-71
2021/08/05 00:57:41;;;;;;;3.67;2.10;;;;;;;21.80;61.35;100305.09;4952043;28;20477;-71
2021/08/05 01:00:09;;;;;;;4.28;2.05;;;;;;;21.78;61.02;100299.97;4951703;29;20043;-70
2021/08/05 01:02:40;;;;;;;3.03;2.03;;;;;;;21.78;60.89;100297.31;4946132;29;20035;-70
2021/08/05 01:05:06;;;;;;;3.88;2.00;;;;;;;21.79;61.17;100296.25;4939494;29;20520;-71
2021/08/05 01:07:48;;;;;;;4.20;1.90;;;;;;;21.77;61.11;100290.31;4935869;29;20042;-71
2021/08/05 01:10:19;;;;;;;4.35;2.47;;;;;;;21.79;61.09;100282.09;4938839;29;20189;-71
2021/08/05 01:12:53;;;;;;;3.28;1.80;;;;;;;21.77;60.99;100284.16;4940258;29;20036;-71
2021/08/05 01:15:24;;;;;;;3.17;2.03;;;;;;;21.79;61.12;100274.91;4922365;29;20038;-71
2021/08/05 01:17:57;;;;;;;3.55;1.90;;;;;;;21.78;61.29;100267.13;4952267;29;20031;-71
2021/08/05 01:20:24;;;;;;;2.92;1.90;;;;;;;21.79;61.08;100261.56;4951877;29;20098;-71
2021/08/05 01:23:26;;;;;;;3.70;2.20;;;;;;;21.75;61.55;100263.03;4951561;29;20047;-71
2021/08/05 01:25:59;;;;;;;4.00;2.70;;;;;;;21.79;61.46;100258.06;4941834;29;20031;-71
2021/08/05 01:28:24;;;;;;;5.25;2.00;;;;;;;21.81;61.46;100266.66;4951000;29;20055;-70
2021/08/05 01:30:52;;;;;;;3.97;2.40;;;;;;;21.79;61.08;100252.72;4951431;29;20481;-71
2021/08/05 01:33:20;;;;;;;2.60;1.77;;;;;;;21.81;61.24;100258.66;4950975;29;20035;-71
2021/08/05 01:35:49;;;;;;;2.92;1.83;;;;;;;21.81;61.34;100261.31;4952185;29;20054;-71
2021/08/05 01:38:17;;;;;;;2.97;1.98;;;;;;;21.80;61.50;100255.16;4949178;28;20090;-71
2021/08/05 01:40:45;;;;;;;2.38;1.65;;;;;;;21.81;61.61;100255.97;4934605;29;20031;-71
2021/08/05 01:43:11;;;;;;;2.60;1.60;;;;;;;21.81;61.50;100247.97;4948520;29;20042;-71
2021/08/05 01:45:38;;;;;;;3.30;1.60;;;;;;;21.81;61.36;100247.97;4951351;29;20035;-71
2021/08/05 01:48:05;;;;;;;3.83;2.10;;;;;;;21.81;61.54;100234.63;4952008;29;20801;-69
2021/08/05 01:50:31;;;;;;;3.80;2.10;;;;;;;21.82;61.54;100233.59;4951084;29;20035;-71
2021/08/05 01:52:57;;;;;;;3.35;1.80;;;;;;;21.81;61.18;100238.09;4950411;29;20102;-71
2021/08/05 01:55:23;;;;;;;2.80;1.70;;;;;;;21.81;61.46;100223.94;4932927;29;20217;-71
2021/08/05 01:57:48;;;;;;;2.83;1.88;;;;;;;21.81;61.31;100221.28;4951204;29;20047;-71
2021/08/05 02:00:14;;;;;;;3.08;1.95;;;;;;;21.81;61.34;100213.25;4949608;29;20039;-70
2021/08/05 02:02:39;;;;;;;2.97;1.95;;;;;;;21.81;61.33;100210.59;4948876;29;20536;-71
2021/08/05 02:05:07;;;;;;;4.68;2.03;;;;;;;21.81;61.22;100203.41;4950904;29;20047;-71
2021/08/05 02:08:05;;;;;;;2.80;1.65;;;;;;;21.77;61.22;100204.06;4938199;29;20031;-71
2021/08/05 02:10:34;;;;;;;2.67;1.80;;;;;;;21.81;61.54;100203.41;4944701;29;20441;-71
2021/08/05 02:13:17;;;;;;;3.47;2.10;;;;;;;21.79;61.11;100181.47;4947218;29;20118;-71
2021/08/05 02:16:05;;;;;;;3.17;1.80;;;;;;;21.76;61.34;100170.38;4950747;29;20050;-71
2021/08/05 02:18:32;;;;;;;3.53;1.77;;;;;;;21.81;61.52;100167.88;4949338;29;20027;-71
2021/08/05 02:21:00;;;;;;;3.05;2.05;;;;;;;21.81;61.16;100157.19;4950691;29;20118;-71
2021/08/05 02:23:27;;;;;;;3.35;1.80;;;;;;;21.81;61.53;100165.22;4941393;28;20043;-71
2021/08/05 02:25:54;;;;;;;4.10;1.80;;;;;;;21.80;61.22;100153.72;4948407;28;20504;-71
2021/08/05 02:28:22;;;;;;;3.45;1.65;;;;;;;21.81;61.11;100130.50;4961886;28;20134;-71
2021/08/05 02:30:50;;;;;;;3.88;1.80;;;;;;;21.82;61.16;100137.47;4939194;28;20066;-72
2021/08/05 02:33:16;;;;;;;3.45;1.85;;;;;;;21.80;60.99;100129.69;4964861;28;20452;-71
2021/08/05 02:35:44;;;;;;;2.53;1.60;;;;;;;21.81;61.23;100135.84;4960582;28;20081;-71
2021/08/05 02:38:11;;;;;;;4.00;1.88;;;;;;;21.82;61.16;100129.44;4962904;28;20039;-71
2021/08/05 02:40:38;;;;;;;4.15;1.90;;;;;;;21.81;61.40;100122.50;4940494;29;20477;-71
2021/08/05 02:43:06;;;;;;;3.17;1.83;;;;;;;21.80;61.18;100111.00;4963093;28;20664;-72
2021/08/05 02:45:34;;;;;;;3.78;1.90;;;;;;;21.80;60.94;100113.66;4963493;28;20035;-71
2021/08/05 02:48:01;;;;;;;2.28;1.50;;;;;;;21.81;61.10;100109.13;4951488;28;20505;-71
2021/08/05 02:50:30;;;;;;;3.97;1.73;;;;;;;21.80;60.93;100110.19;4947101;29;20046;-71
2021/08/05 02:52:57;;;;;;;2.50;1.50;;;;;;;21.81;61.36;100098.47;4945321;29;20047;-69
2021/08/05 02:55:23;;;;;;;2.60;1.73;;;;;;;21.80;60.86;100100.31;4932976;29;20396;-71
2021/08/05 02:57:51;;;;;;;3.58;1.92;;;;;;;21.81;61.14;100095.78;4933659;29;20049;-71
2021/08/05 03:00:17;;;;;;;4.05;2.03;;;;;;;21.80;61.15;100081.63;4947955;28;20043;-71
2021/08/05 03:02:43;;;;;;;2.50;1.48;;;;;;;21.81;61.15;100074.44;4941896;28;20042;-71
2021/08/05 03:05:09;;;;;;;3.28;2.00;;;;;;;21.81;61.06;100061.09;4948619;29;20047;-70
2021/08/05 03:07:35;;;;;;;3.28;1.70;;;;;;;21.81;60.90;100061.91;4950888;28;20380;-71
2021/08/05 03:10:00;;;;;;;4.28;2.22;;;;;;;21.81;61.10;100053.88;4949730;28;20042;-71
2021/08/05 03:12:26;;;;;;;2.30;1.67;;;;;;;21.81;61.06;100053.06;4955881;28;20031;-71
2021/08/05 03:14:51;;;;;;;3.28;1.77;;;;;;;21.80;61.03;100049.59;4961516;28;20469;-71
2021/08/05 03:17:17;;;;;;;2.30;1.50;;;;;;;21.80;60.67;100049.59;4969161;28;20476;-71
2021/08/05 03:19:42;;;;;;;2.92;1.45;;;;;;;21.80;60.73;100038.09;4965035;28;20035;-71
2021/08/05 03:22:08;;;;;;;2.50;1.80;;;;;;;21.80;60.77;100038.09;4959625;28;20118;-69
2021/08/05 03:24:33;;;;;;;4.00;1.88;;;;;;;21.79;60.22;100031.13;4942267;29;20090;-71
2021/08/05 03:26:59;;;;;;;3.22;1.35;;;;;;;21.80;60.23;100032.75;4958193;28;20055;-71
2021/08/05 03:29:24;;;;;;;4.07;1.80;;;;;;;21.79;60.26;100025.78;4944822;28;20035;-71
2021/08/05 03:31:50;;;;;;;3.42;1.50;;;;;;;21.78;60.10;100019.66;4957327;28;20610;-71
2021/08/05 03:34:15;;;;;;;2.78;1.70;;;;;;;21.77;59.97;100011.84;4961847;28;20031;-71
2021/08/05 03:36:40;;;;;;;2.97;1.70;;;;;;;21.78;59.85;100016.16;4958893;28;20031;-71
2021/08/05 03:39:06;;;;;;;2.28;1.30;;;;;;;21.77;59.80;100018.00;4959310;28;20448;-71
2021/08/05 03:41:31;;;;;;;3.80;1.77;;;;;;;21.78;59.77;100019.66;4959255;28;20465;-71
2021/08/05 03:43:57;;;;;;;3.13;1.90;;;;;;;21.77;60.15;100023.31;4957994;28;20540;-71
2021/08/05 03:46:22;;;;;;;2.25;1.63;;;;;;;21.78;59.86;100024.16;4961409;28;20070;-71
2021/08/05 03:48:47;;;;;;;2.67;1.73;;;;;;;21.78;60.09;100016.16;4936047;29;20058;-71
2021/08/05 03:51:13;;;;;;;4.10;1.75;;;;;;;21.77;59.78;100012.66;4942547;29;20039;-71
2021/08/05 03:53:38;;;;;;;4.78;1.92;;;;;;;21.77;59.67;100012.66;4952930;29;20036;-71
2021/08/05 03:56:04;;;;;;;3.08;1.40;;;;;;;21.77;59.92;100001.97;4953861;29;20483;-71
2021/08/05 03:58:29;;;;;;;2.40;1.48;;;;;;;21.77;59.70;99993.16;4952488;28;20099;-71
2021/08/05 04:00:55;;;;;;;2.40;1.40;;;;;;;21.76;59.86;99991.53;4945228;28;20043;-71
2021/08/05 04:03:20;;;;;;;2.38;1.40;;;;;;;21.76;59.60;99984.31;4948290;28;20109;-71
2021/08/05 04:05:46;;;;;;;3.75;1.42;;;;;;;21.77;59.42;99977.13;4953340;28;20375;-71
2021/08/05 04:08:11;;;;;;;2.05;1.40;;;;;;;21.77;59.40;99971.78;4919399;29;20038;-71
2021/08/05 04:10:37;;;;;;;3.58;1.50;;;;;;;21.76;59.74;99968.31;4934816;29;20062;-70
2021/08/05 04:13:03;;;;;;;2.80;1.65;;;;;;;21.77;59.67;99963.78;4935653;29;20027;-71
2021/08/05 04:15:28;;;;;;;2.78;1.60;;;;;;;21.76;59.27;99956.81;4952892;29;20043;-71
2021/08/05 04:17:53;;;;;;;2.78;1.55;;;;;;;21.76;59.33;99957.63;4953229;29;20035;-70
2021/08/05 04:20:21;;;;;;;2.63;1.50;;;;;;;21.76;59.43;99946.13;4952255;28;20038;-71
2021/08/05 04:22:47;;;;;;;2.17;1.50;;;;;;;21.76;59.46;99936.28;4955240;28;20489;-71
2021/08/05 04:25:12;;;;;;;2.85;1.50;;;;;;;21.75;59.27;99929.31;4953910;28;20090;-71
2021/08/05 04:27:39;;;;;;;3.78;1.77;;;;;;;21.76;59.30;99924.78;4939867;29;20125;-71
2021/08/05 04:30:10;;;;;;;2.95;1.65;;;;;;;21.75;59.68;99920.50;4936941;29;20058;-71
2021/08/05 04:32:37;;;;;;;2.95;1.60;;;;;;;21.75;59.55;99913.28;4938412;28;20038;-70
2021/08/05 04:35:04;;;;;;;3.65;1.95;;;;;;;21.76;59.79;99903.44;4955288;28;20039;-71
2021/08/05 04:37:30;;;;;;;2.47;1.30;;;;;;;21.76;59.30;99887.41;4956931;28;20142;-71
2021/08/05 04:39:55;;;;;;;2.75;1.50;;;;;;;21.76;59.34;99885.56;4954169;28;20043;-71
2021/08/05 04:42:21;;;;;;;1.98;1.40;;;;;;;21.76;59.79;99890.09;4937864;28;20035;-71
2021/08/05 04:44:46;;;;;;;2.70;1.50;;;;;;;21.76;59.33;99882.06;4956193;28;20054;-71
2021/08/05 04:47:12;;;;;;;3.03;1.40;;;;;;;21.77;59.55;99886.38;4954403;28;20035;-71
2021/08/05 04:49:37;;;;;;;2.95;1.33;;;;;;;21.77;59.56;99886.38;4951891;28;20396;-71
2021/08/05 04:52:03;;;;;;;2.90;1.30;;;;;;;21.77;59.46;99891.69;4925612;29;20079;-71
2021/08/05 04:54:28;;;;;;;3.08;1.60;;;;;;;21.77;59.81;99881.03;4951418;28;20081;-71
2021/08/05 04:56:54;;;;;;;2.55;1.33;;;;;;;21.77;59.54;99886.38;4951267;28;20063;-70
2021/08/05 04:59:19;;;;;;;3.90;1.70;;;;;;;21.76;59.79;99872.22;4934687;29;20035;-71
2021/08/05 05:01:45;;;;;;;4.97;1.50;;;;;;;21.76;59.88;99866.88;4951589;28;20054;-71
2021/08/05 05:04:11;;;;;;;2.72;1.42;;;;;;;21.77;59.71;99867.69;4952053;28;20392;-70
2021/08/05 05:06:37;;;;;;;2.42;1.70;;;;;;;21.77;59.65;99854.34;4951781;28;20401;-71
2021/08/05 05:09:03;;;;;;;3.65;1.60;;;;;;;21.77;59.83;99854.34;4934733;29;20429;-71
2021/08/05 05:11:30;;;;;;;3.15;1.50;;;;;;;21.77;59.61;99863.16;4940695;28;20047;-71
2021/08/05 05:13:56;;;;;;;2.58;1.63;;;;;;;21.77;59.75;99851.66;4934146;29;20050;-71
2021/08/05 05:16:21;;;;;;;2.28;1.40;;;;;;;21.76;59.74;99850.03;4919018;29;20416;-71
2021/08/05 05:18:46;;;;;;;1.77;1.08;;;;;;;21.76;59.75;99837.50;4951275;28;20109;-71
2021/08/05 05:21:12;;;;;;;2.13;1.35;;;;;;;21.77;59.74;99832.97;4934655;29;20441;-70
2021/08/05 05:23:37;;;;;;;2.97;1.45;;;;;;;21.76;59.82;99824.16;4954563;28;20027;-71
2021/08/05 05:26:03;;;;;;;3.03;1.67;;;;;;;21.77;59.78;99819.63;4937980;29;20639;-71
2021/08/05 05:28:30;;;;;;;3.70;1.73;;;;;;;21.76;60.02;99824.16;4952249;28;20493;-71
2021/08/05 05:30:57;;;;;;;2.38;1.40;;;;;;;21.77;59.94;99822.28;4954625;28;20125;-71
2021/08/05 05:33:22;;;;;;;2.55;1.52;;;;;;;21.78;59.69;99806.06;4953534;28;20043;-71
2021/08/05 05:35:48;;;;;;;2.95;1.70;;;;;;;21.78;60.02;99815.94;4939271;28;20058;-71
2021/08/05 05:38:14;;;;;;;1.77;1.40;;;;;;;21.78;59.94;99807.94;4953097;28;20035;-70
2021/08/05 05:40:40;;;;;;;2.67;1.40;;;;;;;21.78;60.21;99807.94;4954128;28;20342;-71
2021/08/05 05:43:06;;;;;;;2.42;1.48;;;;;;;21.77;59.97;99798.28;4954856;28;20537;-70
2021/08/05 05:45:33;;;;;;;2.78;1.40;;;;;;;21.78;60.21;99789.25;4934332;29;20039;-80
2021/08/05 05:48:00;;;;;;;3.22;1.80;;;;;;;21.78;60.03;99778.56;4953049;28;20039;-71
2021/08/05 05:50:27;;;;;;;2.20;1.40;;;;;;;21.78;60.46;99787.38;4966381;28;20042;-71
2021/08/05 05:52:53;;;;;;;4.20;1.98;;;;;;;21.78;60.17;99784.72;4962622;28;20038;-70
2021/08/05 05:55:19;;;;;;;3.00;1.83;;;;;;;21.78;60.08;99775.91;4967834;28;20507;-71
2021/08/05 05:57:44;;;;;;;2.72;1.60;;;;;;;21.79;60.39;99761.50;4969378;28;20041;-71
2021/08/05 06:00:10;;;;;;;2.60;1.45;;;;;;;21.78;60.17;99760.69;4948226;28;20503;-71
2021/08/05 06:02:36;;;;;;;2.65;1.48;;;;;;;21.77;60.38;99748.38;4935132;28;20058;-71
2021/08/05 06:05:02;;;;;;;3.00;1.65;;;;;;;21.78;60.44;99733.19;4967561;28;20039;-71
2021/08/05 06:07:27;;;;;;;3.40;1.45;;;;;;;21.79;60.72;99724.13;4952380;28;20089;-71
2021/08/05 06:09:53;;;;;;;4.15;1.48;;;;;;;21.79;60.39;99718.78;4930614;29;20047;-71
2021/08/05 06:12:18;;;;;;;5.47;1.60;;;;;;;21.79;60.56;99716.13;4958477;28;20101;-71
2021/08/05 06:14:44;;;;;;;2.42;1.55;;;;;;;21.78;60.67;99714.50;4969538;28;20503;-70
2021/08/05 06:17:10;;;;;;;2.42;1.40;;;;;;;21.78;60.79;99709.97;4968479;28;20038;-71
2021/08/05 06:19:36;;;;;;;3.67;1.50;;;;;;;21.78;60.74;99707.31;4944645;29;20034;-71
2021/08/05 06:22:02;;;;;;;3.15;1.50;;;;;;;21.79;60.60;99710.78;4953032;28;20111;-71
2021/08/05 06:24:27;;;;;;;2.13;1.38;;;;;;;21.78;60.24;99709.16;4935196;29;20142;-71
2021/08/05 06:26:53;;;;;;;2.75;1.60;;;;;;;21.78;60.23;99723.31;4953660;28;20157;-71
2021/08/05 06:29:18;;;;;;;3.53;1.52;;;;;;;21.77;60.24;99721.66;4954994;28;20578;-71
2021/08/05 06:31:44;;;;;;;3.65;1.45;;;;;;;21.78;60.63;99725.19;4951232;28;20058;-70
2021/08/05 06:34:10;;;;;;;3.13;1.50;;;;;;;21.77;60.52;99719.00;4955332;28;20037;-72
2021/08/05 06:36:36;;;;;;;2.05;1.48;;;;;;;21.79;60.62;99721.47;4936352;29;20461;-70
2021/08/05 06:39:05;;;;;;;5.60;1.50;;;;;;;21.78;60.86;99714.50;4936838;28;20449;-71
2021/08/05 06:41:32;;;;;;;6.28;1.88;;;;;;;21.79;60.96;99726.78;4948921;28;20035;-71
2021/08/05 06:43:57;;;;;;;11.15;1.90;;;;;;;21.79;60.80;99716.13;4959675;28;20042;-70
2021/08/05 06:46:26;;;;;;;6.15;1.90;;;;;;;21.78;60.70;99717.97;4957799;28;20369;-70
2021/08/05 06:48:52;;;;;;;5.15;1.90;;;;;;;21.78;61.00;99704.63;4951592;28;20035;-71
2021/08/05 06:51:17;;;;;;;2.83;1.60;;;;;;;21.79;60.92;99705.44;4952669;28;20074;-70
2021/08/05 06:53:43;;;;;;;3.30;1.67;;;;;;;21.79;61.16;99705.44;4954299;28;20079;-71
2021/08/05 06:56:09;;;;;;;6.55;1.80;;;;;;;21.79;60.94;99706.25;4954137;28;20039;-71
2021/08/05 06:58:35;;;;;;;3.00;1.45;;;;;;;21.79;61.61;99700.09;4953923;28;20038;-70
2021/08/05 07:01:00;;;;;;;3.75;1.52;;;;;;;21.80;61.51;99693.72;4953321;28;20051;-71
2021/08/05 07:03:27;;;;;;;3.38;1.90;;;;;;;21.80;61.48;99683.03;4950971;28;20386;-71
2021/08/05 07:05:52;;;;;;;4.10;1.63;;;;;;;21.80;61.49;99691.03;4936904;29;20095;-72
2021/08/05 07:08:18;;;;;;;2.88;1.65;;;;;;;21.81;61.64;99690.00;4953848;28;20043;-71
2021/08/05 07:10:43;;;;;;;3.38;1.77;;;;;;;21.80;61.60;99681.19;4936917;29;20058;-70
2021/08/05 07:13:09;;;;;;;5.28;1.60;;;;;;;21.81;61.88;99676.66;4948675;28;20070;-70
2021/08/05 07:15:34;;;;;;;4.80;1.42;;;;;;;21.82;61.77;99675.59;4943254;28;20046;-71
2021/08/05 07:18:00;;;;;;;2.83;1.42;;;;;;;21.82;61.34;99670.25;4947224;28;20716;-68
2021/08/05 07:20:25;;;;;;;4.82;1.88;;;;;;;21.81;61.78;99663.28;4949805;28;20043;-70
2021/08/05 07:22:51;;;;;;;5.93;1.67;;;;;;;21.80;61.82;99648.34;4954904;28;20418;-71
2021/08/05 07:25:17;;;;;;;4.55;1.73;;;;;;;21.80;62.09;99657.16;4953251;28;20043;-70
2021/08/05 07:27:44;;;;;;;5.65;1.52;;;;;;;21.80;61.89;99659.81;4954019;28;20051;-70
2021/08/05 07:30:11;;;;;;;5.88;2.03;;;;;;;21.81;62.12;99652.63;4954476;28;20054;-70
2021/08/05 07:32:37;;;;;;;2.72;1.10;;;;;;;21.81;61.96;99655.28;4947339;28;20035;-71
2021/08/05 07:35:03;;;;;;;3.63;1.60;;;;;;;21.80;62.35;99649.13;4955134;28;20027;-71
2021/08/05 07:37:29;;;;;;;7.00;1.77;;;;;;;21.80;62.07;99630.44;4954964;28;20046;-70
2021/08/05 07:39:54;;;;;;;4.55;1.60;;;;;;;21.80;62.13;99643.81;4953985;28;20035;-72
2021/08/05 07:42:20;;;;;;;4.32;1.45;;;;;;;21.80;62.13;99656.34;4947308;28;20454;-71
2021/08/05 07:44:46;;;;;;;6.47;1.50;;;;;;;21.80;61.63;99645.66;4936496;29;20039;-71
2021/08/05 07:47:12;;;;;;;7.38;1.67;;;;;;;21.80;61.73;99653.66;4954432;28;20102;-70
2021/08/05 07:49:37;;;;;;;3.55;1.75;;;;;;;21.80;61.57;99659.00;4952728;28;20051;-71
2021/08/05 07:52:04;;;;;;;5.63;1.80;;;;;;;21.79;62.08;99650.19;4953210;28;20118;-70
2021/08/05 07:54:30;;;;;;;4.82;1.27;;;;;;;21.79;62.05;99652.84;4935304;29;20039;-71
2021/08/05 07:56:55;;;;;;;7.63;1.77;;;;;;;21.78;61.78;99640.56;4950360;28;20189;-70
2021/08/05 07:59:21;;;;;;;5.95;1.35;;;;;;;21.79;62.16;99647.53;4949703;28;20047;-68
2021/08/05 08:01:46;;;;;;;7.60;1.50;;;;;;;21.79;62.12;99634.16;4943070;28;20039;-74
2021/08/05 08:04:11;;;;;;;18.38;3.42;;;;;;;21.80;62.39;99637.66;4935472;29;20031;-70
2021/08/05 08:06:37;;;;;;;10.40;2.55;;;;;;;21.79;62.41;99620.00;4943225;28;20144;-68
2021/08/05 08:09:03;;;;;;;9.48;2.65;;;;;;;21.80;62.35;99621.63;4951758;28;20031;-77
2021/08/05 08:11:30;;;;;;;7.55;2.17;;;;;;;21.80;62.33;99617.09;4919852;29;20085;-72
2021/08/05 08:13:56;;;;;;;9.00;2.50;;;;;;;21.80;62.07;99606.44;4948160;29;20102;-67
2021/08/05 08:16:22;;;;;;;8.73;2.28;;;;;;;21.80;62.29;99610.97;4948873;29;20023;-69
2021/08/05 08:18:49;;;;;;;7.32;2.45;;;;;;;21.80;62.29;99608.28;4936702;29;20043;-70
2021/08/05 08:21:15;;;;;;;8.32;2.60;;;;;;;21.80;62.25;99592.28;4932579;29;20473;-71
2021/08/05 08:23:41;;;;;;;12.60;2.95;;;;;;;21.80;62.56;99592.28;4948880;29;20038;-69
2021/08/05 08:26:07;;;;;;;12.52;2.53;;;;;;;21.81;62.51;99585.88;4948223;28;20035;-68
2021/08/05 08:28:33;;;;;;;8.00;3.20;;;;;;;21.81;62.34;99575.19;4945007;28;20059;-66
2021/08/05 08:30:58;;;;;;;7.10;1.88;;;;;;;21.78;62.16;99563.16;4947266;29;20047;-66
2021/08/05 08:33:24;;;;;;;6.30;2.05;;;;;;;21.75;62.26;99565.47;4948313;29;20095;-71
2021/08/05 08:35:49;;;;;;;8.38;1.52;;;;;;;21.70;62.41;99563.53;4928694;29;20501;-66
2021/08/05 08:38:15;;;;;;;6.22;1.80;;;;;;;21.68;62.08;99554.97;4947778;29;20031;-67
2021/08/05 08:40:41;;;;;;;2.67;1.00;;;;;;;21.65;62.34;99566.13;4946242;29;20043;-67
2021/08/05 08:43:06;;;;;;;3.28;1.20;;;;;;;21.62;61.90;99563.09;4944240;29;20040;-67
2021/08/05 08:45:32;;;;;;;4.72;1.13;;;;;;;21.61;61.83;99558.81;4930682;29;20480;-64
2021/08/05 08:48:00;;;;;;;3.63;1.15;;;;;;;21.60;61.98;99565.19;4949122;28;20109;-66
2021/08/05 08:50:27;;;;;;;5.35;1.20;;;;;;;21.60;61.62;99562.53;4956838;28;20023;-65
2021/08/05 08:52:57;;;;;;;4.05;1.23;;;;;;;21.59;61.51;99547.56;4935762;29;20031;-66
2021/08/05 08:55:24;;;;;;;5.22;1.30;;;;;;;21.60;61.61;99542.00;4947693;28;20366;-64
2021/08/05 08:57:53;;;;;;;6.03;1.30;;;;;;;21.61;61.56;99524.94;4949190;28;20499;-65
2021/08/05 09:00:18;;;;;;;3.42;1.30;;;;;;;21.60;61.42;99525.97;4946008;28;20039;-65
2021/08/05 09:02:46;;;;;;;3.10;1.13;;;;;;;21.61;61.33;99521.44;4947805;28;20422;-65
2021/08/05 09:05:12;;;;;;;4.05;1.30;;;;;;;21.61;61.59;99518.78;4950943;28;20039;-65
2021/08/05 09:07:38;;;;;;;4.63;1.30;;;;;;;21.61;61.22;99498.25;4953191;28;20094;-64
2021/08/05 09:10:04;;;;;;;3.85;1.20;;;;;;;21.62;61.50;99496.38;4952431;28;20473;-66
2021/08/05 09:12:30;;;;;;;4.63;1.45;;;;;;;21.61;61.24;99506.25;4953329;28;20098;-67
2021/08/05 09:14:55;;;;;;;4.13;1.30;;;;;;;21.62;61.37;99496.38;4952327;28;20533;-66
2021/08/05 09:17:25;;;;;;;3.33;1.25;;;;;;;21.62;61.55;99488.38;4947327;28;20106;-72
2021/08/05 09:19:56;;;;;;;4.07;1.30;;;;;;;21.62;61.57;99485.72;4946189;28;20050;-65
2021/08/05 09:22:53;;;;;;;4.18;1.50;;;;;;;21.58;61.31;99468.56;4950822;28;20078;-63
2021/08/05 09:25:34;;;;;;;4.40;1.55;;;;;;;21.56;61.23;99452.81;4946729;28;20790;-64
2021/08/05 09:28:14;;;;;;;6.68;1.50;;;;;;;21.57;61.67;99445.59;4965949;28;20420;-67
2021/08/05 09:30:41;;;;;;;4.47;1.30;;;;;;;21.60;61.30;99419.25;4959430;28;20050;-68
2021/08/05 09:33:12;;;;;;;6.97;1.70;;;;;;;21.61;61.29;99425.38;4949007;28;20038;-66
2021/08/05 09:35:40;;;;;;;5.47;1.75;;;;;;;21.60;61.49;99415.75;4945782;28;20116;-65
2021/08/05 09:38:25;;;;;;;4.75;1.50;;;;;;;21.55;61.63;99397.00;4964783;28;20066;-65
2021/08/05 09:40:52;;;;;;;6.20;1.33;;;;;;;21.58;61.69;99396.53;4950673;28;20031;-63
2021/08/05 09:43:26;;;;;;;5.88;1.30;;;;;;;21.57;61.52;99389.56;4941277;29;20370;-67
2021/08/05 09:45:52;;;;;;;5.95;2.10;;;;;;;21.59;61.81;99379.47;4946484;28;20043;-64
2021/08/05 09:48:38;;;;;;;6.15;1.20;;;;;;;21.56;61.63;99370.09;4931601;29;20138;-64
2021/08/05 09:51:06;;;;;;;5.35;1.55;;;;;;;21.61;61.64;99361.34;4950900;28;20070;-68
2021/08/05 09:53:32;;;;;;;6.03;1.30;;;;;;;21.61;61.52;99356.81;4955498;28;20038;-64
2021/08/05 09:56:11;;;;;;;9.05;2.13;;;;;;;21.58;61.86;99357.31;4961773;28;20043;-64
2021/08/05 09:58:38;;;;;;;5.30;1.85;;;;;;;21.63;61.81;99359.25;4950753;28;20046;-64
2021/08/05 10:01:07;;;;;;;4.15;1.40;;;;;;;21.63;61.46;99351.25;4949454;28;20123;-64
2021/08/05 10:03:34;;;;;;;7.57;1.65;;;;;;;21.64;61.45;99350.19;4949506;28;20174;-64
2021/08/05 10:06:02;;;;;;;6.38;1.40;;;;;;;21.65;61.65;99354.47;4947081;28;20054;-67
2021/08/05 10:08:34;;;;;;;7.05;1.60;;;;;;;21.64;61.41;99356.34;4946907;29;20032;-64
2021/08/05 10:11:00;;;;;;;7.07;1.50;;;;;;;21.65;61.68;99360.63;4950969;29;20061;-66
2021/08/05 10:13:30;;;;;;;3.95;1.60;;;;;;;21.66;61.50;99353.44;4951236;29;20067;-64
2021/08/05 10:15:56;;;;;;;10.32;1.85;;;;;;;21.67;61.79;99349.69;4951561;29;20062;-64
2021/08/05 10:18:28;;;;;;;4.57;1.42;;;;;;;21.66;61.45;99345.41;4951808;29;20098;-64
2021/08/05 10:20:56;;;;;;;3.38;1.33;;;;;;;21.68;61.36;99345.97;4949740;29;20057;-64
2021/08/05 10:23:22;;;;;;;5.32;1.80;;;;;;;21.68;61.45;99337.97;4952474;28;20105;-66
2021/08/05 10:25:48;;;;;;;4.85;1.50;;;;;;;21.68;61.70;99332.63;4954169;29;20050;-66
2021/08/05 10:28:15;;;;;;;4.10;1.67;;;;;;;21.69;61.33;99328.91;4955239;29;20709;-64
2021/08/05 10:30:41;;;;;;;3.70;1.30;;;;;;;21.69;61.47;99331.56;4955217;29;20110;-64
2021/08/05 10:33:07;;;;;;;4.07;1.33;;;;;;;21.68;61.32;99320.09;4955241;29;20059;-64
2021/08/05 10:35:33;;;;;;;5.03;1.38;;;;;;;21.69;61.60;99327.03;4955181;29;20075;-65
2021/08/05 10:38:00;;;;;;;3.70;1.42;;;;;;;21.69;61.42;99323.56;4954815;29;20083;-64
2021/08/05 10:40:27;;;;;;;3.65;1.35;;;;;;;21.70;61.55;99320.66;4955071;29;20125;-64
2021/08/05 10:42:55;;;;;;;4.43;1.55;;;;;;;21.71;61.37;99318.78;4954379;29;20074;-64
2021/08/05 10:45:21;;;;;;;4.97;1.30;;;;;;;21.71;61.61;99316.13;4938021;29;20035;-64
2021/08/05 10:47:49;;;;;;;4.95;1.27;;;;;;;21.73;61.24;99324.69;4954876;29;20043;-64
2021/08/05 10:50:17;;;;;;;3.85;1.60;;;;;;;21.73;61.45;99330.03;4954044;29;20444;-68
2021/08/05 10:52:47;;;;;;;3.22;1.10;;;;;;;21.73;61.62;99322.00;4954742;29;20028;-64
2021/08/05 10:55:15;;;;;;;5.55;1.83;;;;;;;21.72;61.65;99315.88;4953710;29;20035;-65
2021/08/05 10:57:42;;;;;;;5.60;1.35;;;;;;;21.74;61.80;99312.94;4954382;29;20157;-64
2021/08/05 11:00:13;;;;;;;4.97;1.65;;;;;;;21.74;61.52;99296.94;4953644;29;20035;-66
2021/08/05 11:02:53;;;;;;;4.70;1.58;;;;;;;21.75;61.44;99311.91;4954770;28;20065;-66
2021/08/05 11:05:21;;;;;;;5.05;1.65;;;;;;;21.75;61.39;99304.69;4954238;28;20027;-64
2021/08/05 11:07:53;;;;;;;4.65;1.25;;;;;;;21.76;61.83;99310.84;4954795;28;20440;-66
2021/08/05 11:10:25;;;;;;;3.50;1.30;;;;;;;21.77;61.82;99301.78;4953658;28;20241;-64
2021/08/05 11:12:54;;;;;;;4.68;1.77;;;;;;;21.77;61.84;99299.91;4954354;28;20550;-64
2021/08/05 11:15:19;;;;;;;5.85;1.83;;;;;;;21.77;61.51;99291.09;4936680;28;20050;-65
2021/08/05 11:18:16;;;;;;;2.95;1.13;;;;;;;21.74;61.68;99291.59;4954318;28;20027;-64
2021/08/05 11:20:43;;;;;;;3.38;1.10;;;;;;;21.77;61.78;99286.56;4956091;28;20022;-64
2021/08/05 11:23:36;;;;;;;2.92;1.20;;;;;;;21.73;61.70;99279.31;4956522;28;20046;-65
2021/08/05 11:26:06;;;;;;;3.17;1.20;;;;;;;21.76;61.84;99276.94;4954844;28;20095;-65
2021/08/05 11:28:40;;;;;;;3.75;1.30;;;;;;;21.76;61.75;99262.78;4955581;28;20138;-68
2021/08/05 11:31:08;;;;;;;2.65;1.30;;;;;;;21.78;61.72;99266.06;4954420;28;20038;-65
2021/08/05 11:33:33;;;;;;;2.83;1.25;;;;;;;21.78;62.14;99253.50;4956313;28;20039;-64